Andros, Greece
Current Conditions -  °F | °C
As of 10:50 AM on Monday 20 Oct 2014 (Local Time) from LGMK Reporting Station
Clear Clear  
Wind Chill: 64°   Ceiling: Unl
Heat Index: 64°   Visibility: 6mi
Dew Point: 52°   Wind: 22mph
Humidity: 64%   Direction: 20°NNE
Pressure: 30.15"   Gusts: NA
Location:  37.83°N, 24.93°E
Report Text: LGMK 200750Z 02019KT CAVOK 18/11 Q1021
Loading
Personal Weather Stations






























Interactive Weather Map
Tropical Storm Tracking
New forecast layout! Learn more

10-Day Weather Forecast

Advertisements
Track Severe Weather on mobile